Time;durP1;ratioP1;P1;durP2;ratioP2;P2;SDS_P1;SDS_P2;PMS_P1;PMS_P2;Temp;Humidity;BMP_temperature;BMP_pressure;BME280_temperature;BME280_humidity;BME280_pressure;Samples;Min_cycle;Max_cycle;Signal;HPM_P1;HPM_P2
2023/08/06 00:00:26;;;;;;;3.17;2.87;;;18.40;99.20;;;;;;5033570;28;20466;-61
2023/08/06 00:02:53;;;;;;;3.97;2.60;;;18.40;99.20;;;;;;5033704;28;20458;-61
2023/08/06 00:05:20;;;;;;;5.50;2.73;;;18.40;99.20;;;;;;5033267;28;20958;-61
2023/08/06 00:07:49;;;;;;;5.37;2.87;;;18.40;99.30;;;;;;5034399;28;20846;-62
2023/08/06 00:10:16;;;;;;;2.70;2.13;;;18.40;99.40;;;;;;5033606;28;20505;-61
2023/08/06 00:12:43;;;;;;;4.43;2.90;;;18.40;99.50;;;;;;5033508;28;20450;-62
2023/08/06 00:15:10;;;;;;;5.40;3.00;;;18.40;99.50;;;;;;5033362;28;20447;-62
2023/08/06 00:17:37;;;;;;;2.90;2.70;;;18.40;99.50;;;;;;5033113;28;20446;-61
2023/08/06 00:20:06;;;;;;;3.20;2.90;;;18.40;99.60;;;;;;5033417;28;20470;-62
2023/08/06 00:22:33;;;;;;;5.00;3.30;;;18.40;99.60;;;;;;5033347;28;20442;-62
2023/08/06 00:25:01;;;;;;;7.70;3.00;;;18.40;99.60;;;;;;5033317;28;20469;-62
2023/08/06 00:27:28;;;;;;;3.13;2.83;;;18.40;99.60;;;;;;5033357;28;20446;-61
2023/08/06 00:29:55;;;;;;;3.03;2.70;;;18.40;99.70;;;;;;5033274;28;20462;-61
2023/08/06 00:32:22;;;;;;;2.83;2.60;;;18.30;99.60;;;;;;5033232;28;20450;-61
2023/08/06 00:34:49;;;;;;;5.00;2.80;;;18.30;99.60;;;;;;5033289;28;20449;-62
2023/08/06 00:37:17;;;;;;;3.60;3.03;;;18.30;99.60;;;;;;5033178;28;20486;-62
2023/08/06 00:39:43;;;;;;;3.23;2.93;;;18.30;99.70;;;;;;5033126;28;21066;-61
2023/08/06 00:42:12;;;;;;;3.07;2.80;;;18.30;99.70;;;;;;5033201;28;20446;-62
2023/08/06 00:44:39;;;;;;;3.33;3.03;;;18.30;99.80;;;;;;5033124;28;20446;-62
2023/08/06 00:47:08;;;;;;;5.13;3.10;;;18.30;99.80;;;;;;5033366;28;20435;-61
2023/08/06 00:49:36;;;;;;;2.70;2.50;;;18.20;99.80;;;;;;5033031;28;20477;-61
2023/08/06 00:52:04;;;;;;;3.17;2.87;;;18.20;99.80;;;;;;5033130;28;20442;-61
2023/08/06 00:54:32;;;;;;;4.30;3.00;;;18.30;99.90;;;;;;5033143;28;20438;-61
2023/08/06 00:57:00;;;;;;;3.43;2.37;;;18.30;99.90;;;;;;5033292;28;20478;-61
2023/08/06 00:59:28;;;;;;;4.00;2.70;;;18.30;99.90;;;;;;5032995;28;20450;-61
2023/08/06 01:01:55;;;;;;;4.73;2.90;;;18.20;99.90;;;;;;5032843;28;20465;-62
2023/08/06 01:04:23;;;;;;;3.40;2.53;;;18.30;99.90;;;;;;5033880;28;20443;-62
2023/08/06 01:06:53;;;;;;;4.53;3.07;;;18.30;99.90;;;;;;5032999;28;20439;-62
2023/08/06 01:09:31;;;;;;;2.53;2.20;;;18.30;99.90;;;;;;5033440;28;20447;-62
2023/08/06 01:12:10;;;;;;;4.00;3.17;;;18.30;99.90;;;;;;5033022;28;20427;-61
2023/08/06 01:14:47;;;;;;;2.97;2.57;;;18.30;99.90;;;;;;5033958;28;20439;-62
2023/08/06 01:17:15;;;;;;;3.70;2.67;;;18.30;99.90;;;;;;5032976;28;20469;-62
2023/08/06 01:19:42;;;;;;;3.37;2.60;;;18.30;99.90;;;;;;5032909;28;20453;-62
2023/08/06 01:22:10;;;;;;;2.80;2.60;;;18.30;99.90;;;;;;5032992;28;20443;-62
2023/08/06 01:24:36;;;;;;;4.90;3.33;;;18.30;99.90;;;;;;5032899;28;20454;-62
2023/08/06 01:27:09;;;;;;;3.30;2.83;;;18.30;99.90;;;;;;5033875;28;20441;-62
2023/08/06 01:29:40;;;;;;;2.80;2.57;;;18.30;99.90;;;;;;5034689;28;20925;-62
2023/08/06 01:32:09;;;;;;;4.10;2.70;;;18.30;99.90;;;;;;5036089;28;20446;-62
2023/08/06 01:34:37;;;;;;;3.60;2.70;;;18.30;99.90;;;;;;5036162;28;20944;-65
2023/08/06 01:37:05;;;;;;;3.60;3.30;;;18.30;99.90;;;;;;5036259;28;20481;-62
2023/08/06 01:39:34;;;;;;;2.57;2.37;;;18.30;99.90;;;;;;5036223;28;20453;-62
2023/08/06 01:42:01;;;;;;;3.30;2.77;;;18.30;99.90;;;;;;5036363;28;20447;-62
2023/08/06 01:44:28;;;;;;;3.50;2.70;;;18.20;99.90;;;;;;5036253;28;20450;-62
2023/08/06 01:46:55;;;;;;;4.93;2.40;;;18.20;99.90;;;;;;5036189;28;20439;-62
2023/08/06 01:49:21;;;;;;;5.13;2.83;;;18.20;99.90;;;;;;5036178;28;20450;-62
2023/08/06 01:51:48;;;;;;;2.63;2.13;;;18.10;99.90;;;;;;5036814;28;20466;-62
2023/08/06 01:54:15;;;;;;;2.50;2.30;;;18.10;99.90;;;;;;5037155;28;20453;-62
2023/08/06 01:56:43;;;;;;;2.97;2.73;;;18.10;99.90;;;;;;5036666;28;20485;-62
2023/08/06 01:59:09;;;;;;;2.43;2.20;;;18.10;99.90;;;;;;5036103;28;20449;-61
2023/08/06 02:01:36;;;;;;;4.80;2.33;;;18.10;99.90;;;;;;5035827;28;20497;-62
2023/08/06 02:04:03;;;;;;;2.07;1.97;;;18.00;99.90;;;;;;5035977;28;20423;-62
2023/08/06 02:06:30;;;;;;;2.77;2.17;;;18.00;99.90;;;;;;5035926;28;20445;-62
2023/08/06 02:08:56;;;;;;;2.40;2.20;;;18.00;99.90;;;;;;5035444;28;20442;-62
2023/08/06 02:11:23;;;;;;;3.00;2.10;;;18.00;99.90;;;;;;5035396;28;21003;-62
2023/08/06 02:13:51;;;;;;;5.00;2.33;;;17.90;99.90;;;;;;5035730;28;20443;-62
2023/08/06 02:16:18;;;;;;;3.27;2.07;;;17.90;99.90;;;;;;5035594;28;20478;-62
2023/08/06 02:18:44;;;;;;;3.63;2.00;;;18.00;99.90;;;;;;5035563;28;20442;-62
2023/08/06 02:21:11;;;;;;;3.53;1.93;;;17.90;99.90;;;;;;5035223;28;20473;-61
2023/08/06 02:23:38;;;;;;;3.97;1.80;;;17.90;99.90;;;;;;5035160;28;20963;-62
2023/08/06 02:26:05;;;;;;;2.23;1.83;;;17.90;99.90;;;;;;5035602;28;20446;-62
2023/08/06 02:28:32;;;;;;;1.97;1.63;;;17.80;99.90;;;;;;5035467;28;20451;-62
2023/08/06 02:31:00;;;;;;;2.03;1.70;;;17.90;99.90;;;;;;5035507;28;20550;-61
2023/08/06 02:33:27;;;;;;;2.30;1.50;;;17.80;99.90;;;;;;5035290;28;20470;-62
2023/08/06 02:36:00;;;;;;;1.87;1.60;;;17.90;99.90;;;;;;5035145;28;20447;-62
2023/08/06 02:38:27;;;;;;;1.90;1.80;;;17.90;99.90;;;;;;5035265;28;20458;-62
2023/08/06 02:40:54;;;;;;;2.53;1.83;;;17.90;99.90;;;;;;5035058;28;20458;-61
2023/08/06 02:43:21;;;;;;;3.57;1.93;;;18.00;99.90;;;;;;5034797;28;20967;-62
2023/08/06 02:45:47;;;;;;;3.60;1.97;;;18.00;99.90;;;;;;5035016;28;20442;-62
2023/08/06 02:48:15;;;;;;;3.70;1.97;;;18.00;99.90;;;;;;5035215;28;20450;-62
2023/08/06 02:50:42;;;;;;;2.83;1.83;;;18.00;99.90;;;;;;5034947;28;20474;-62
2023/08/06 02:53:09;;;;;;;2.40;2.20;;;18.10;99.90;;;;;;5034940;28;20446;-62
2023/08/06 02:55:36;;;;;;;3.37;2.10;;;18.10;99.90;;;;;;5034854;28;20442;-63
2023/08/06 02:58:03;;;;;;;2.40;2.20;;;18.10;99.90;;;;;;5035004;28;20474;-62
2023/08/06 03:00:30;;;;;;;2.20;2.00;;;18.10;99.90;;;;;;5034333;28;20979;-62
2023/08/06 03:02:56;;;;;;;2.50;2.10;;;18.10;99.90;;;;;;5034371;28;20892;-61
2023/08/06 03:05:24;;;;;;;2.30;1.70;;;18.10;99.90;;;;;;5034969;28;20446;-62
2023/08/06 03:07:51;;;;;;;6.53;2.30;;;18.10;99.90;;;;;;5034944;28;20439;-62
2023/08/06 03:10:18;;;;;;;2.93;1.77;;;18.00;99.90;;;;;;5034589;28;20462;-62
2023/08/06 03:12:45;;;;;;;7.27;1.80;;;18.10;99.90;;;;;;5034537;28;20458;-62
2023/08/06 03:15:11;;;;;;;2.47;2.27;;;18.10;99.90;;;;;;5034154;28;20454;-62
2023/08/06 03:17:38;;;;;;;2.53;1.70;;;18.10;99.90;;;;;;5034370;28;20821;-62
2023/08/06 03:20:06;;;;;;;2.43;1.73;;;18.10;99.90;;;;;;5034378;28;20469;-63
2023/08/06 03:22:34;;;;;;;2.83;1.70;;;18.10;99.90;;;;;;5034336;28;20447;-62
2023/08/06 03:25:01;;;;;;;1.40;1.30;;;18.10;99.90;;;;;;5034289;28;20451;-62
2023/08/06 03:27:28;;;;;;;1.70;1.60;;;18.10;99.90;;;;;;5034455;28;20450;-62
2023/08/06 03:29:54;;;;;;;1.80;1.70;;;18.10;99.90;;;;;;5034080;28;20473;-62
2023/08/06 03:32:21;;;;;;;1.90;1.80;;;18.10;99.90;;;;;;5034052;28;20485;-62
2023/08/06 03:34:48;;;;;;;2.63;1.67;;;18.10;99.90;;;;;;5034132;28;20446;-62
2023/08/06 03:37:15;;;;;;;1.80;1.67;;;18.10;99.90;;;;;;5033998;28;20505;-62
2023/08/06 03:39:43;;;;;;;6.10;1.90;;;18.10;99.90;;;;;;5034024;28;20447;-62
2023/08/06 03:42:09;;;;;;;2.17;1.73;;;18.10;99.90;;;;;;5034133;28;20447;-62
2023/08/06 03:44:36;;;;;;;4.40;1.63;;;18.10;99.90;;;;;;5034801;28;20443;-62
2023/08/06 03:47:02;;;;;;;2.40;2.00;;;18.10;99.90;;;;;;5033944;28;20442;-62
2023/08/06 03:49:32;;;;;;;3.60;1.83;;;18.00;99.90;;;;;;5033915;28;20447;-62
2023/08/06 03:51:58;;;;;;;3.50;2.40;;;18.10;99.90;;;;;;5033321;28;20451;-62
2023/08/06 03:54:25;;;;;;;3.13;2.17;;;18.00;99.90;;;;;;5034095;28;20451;-62
2023/08/06 03:56:53;;;;;;;4.50;2.03;;;18.00;99.90;;;;;;5033747;28;20482;-62
2023/08/06 03:59:20;;;;;;;4.43;2.03;;;18.00;99.90;;;;;;5033822;28;20446;-62
2023/08/06 04:01:46;;;;;;;3.87;2.40;;;18.00;99.90;;;;;;5033348;28;20841;-62
2023/08/06 04:04:13;;;;;;;2.60;2.40;;;18.00;99.90;;;;;;5033836;28;20509;-62
2023/08/06 04:06:41;;;;;;;2.70;1.97;;;17.90;99.90;;;;;;5033658;28;20439;-62
2023/08/06 04:09:07;;;;;;;2.03;1.80;;;17.90;99.90;;;;;;5033621;28;20454;-62
2023/08/06 04:11:34;;;;;;;1.93;1.70;;;17.90;99.90;;;;;;5033854;28;20458;-61
2023/08/06 04:14:02;;;;;;;4.40;2.50;;;17.90;99.90;;;;;;5033670;28;20446;-62
2023/08/06 04:16:29;;;;;;;3.03;2.40;;;17.90;99.90;;;;;;5033305;28;20948;-62
2023/08/06 04:18:56;;;;;;;3.60;1.80;;;17.90;99.90;;;;;;5033456;28;20442;-62
2023/08/06 04:21:23;;;;;;;3.03;2.07;;;17.90;99.90;;;;;;5033479;28;20834;-62
2023/08/06 04:23:49;;;;;;;2.77;2.10;;;17.90;99.90;;;;;;5033462;28;20453;-62
2023/08/06 04:26:16;;;;;;;2.50;2.23;;;17.90;99.90;;;;;;5033452;28;20442;-62
2023/08/06 04:28:43;;;;;;;4.07;2.33;;;17.90;99.90;;;;;;5033412;28;20453;-62
2023/08/06 04:31:11;;;;;;;3.20;2.17;;;17.90;99.90;;;;;;5033693;28;20485;-61
2023/08/06 04:33:37;;;;;;;1.93;1.53;;;17.90;99.90;;;;;;5033112;28;20967;-61
2023/08/06 04:36:04;;;;;;;2.27;1.90;;;17.90;99.90;;;;;;5033438;28;20450;-61
2023/08/06 04:38:31;;;;;;;3.07;2.00;;;17.90;99.90;;;;;;5033101;28;21035;-61
2023/08/06 04:40:58;;;;;;;2.33;1.50;;;17.90;99.90;;;;;;5033368;28;20477;-61
2023/08/06 04:43:25;;;;;;;3.03;1.53;;;17.90;99.90;;;;;;5033563;28;20450;-61
2023/08/06 04:45:55;;;;;;;2.67;2.10;;;17.90;99.90;;;;;;5033331;28;20455;-62
2023/08/06 04:48:23;;;;;;;1.70;1.60;;;17.90;99.90;;;;;;5033313;28;20446;-62
2023/08/06 04:50:51;;;;;;;1.83;1.70;;;18.00;99.90;;;;;;5033284;28;20462;-61
2023/08/06 04:53:18;;;;;;;2.70;1.37;;;18.00;99.90;;;;;;5033178;28;20856;-62
2023/08/06 04:55:45;;;;;;;2.40;1.20;;;18.10;99.90;;;;;;5033351;28;20443;-62
2023/08/06 04:58:13;;;;;;;5.40;1.60;;;18.20;99.90;;;;;;5032986;28;20482;-62
2023/08/06 05:00:40;;;;;;;2.63;1.30;;;18.20;99.90;;;;;;5033053;28;20473;-62
2023/08/06 05:03:07;;;;;;;2.13;1.33;;;18.30;99.90;;;;;;5034093;28;20454;-62
2023/08/06 05:05:35;;;;;;;1.03;0.93;;;18.40;99.90;;;;;;5036972;28;20443;-62
2023/08/06 05:08:02;;;;;;;4.43;1.77;;;18.40;99.90;;;;;;5037077;28;20442;-62
2023/08/06 05:10:28;;;;;;;1.73;1.53;;;18.50;99.90;;;;;;5036769;28;20466;-62
2023/08/06 05:12:55;;;;;;;1.50;1.23;;;18.50;99.90;;;;;;5036816;28;20933;-62
2023/08/06 05:15:22;;;;;;;5.30;1.23;;;18.50;99.90;;;;;;5036474;28;20446;-61
2023/08/06 05:17:49;;;;;;;3.63;1.97;;;18.50;99.90;;;;;;5036745;28;20485;-61
2023/08/06 05:20:15;;;;;;;3.10;1.80;;;18.60;99.90;;;;;;5036619;28;20458;-61
2023/08/06 05:22:44;;;;;;;3.00;1.43;;;18.50;99.90;;;;;;5036394;28;21012;-61
2023/08/06 05:25:14;;;;;;;2.50;1.60;;;18.60;99.90;;;;;;5036594;28;20446;-61
2023/08/06 05:27:40;;;;;;;2.50;1.70;;;18.50;99.90;;;;;;5036819;28;20439;-61
2023/08/06 05:30:08;;;;;;;2.47;2.17;;;18.50;99.90;;;;;;5036639;28;20462;-61
2023/08/06 05:32:35;;;;;;;4.10;2.30;;;18.50;99.90;;;;;;5036257;28;20447;-61
2023/08/06 05:35:01;;;;;;;2.57;2.10;;;18.50;99.90;;;;;;5036267;28;20457;-62
2023/08/06 05:37:28;;;;;;;3.20;2.73;;;18.50;99.90;;;;;;5036058;28;20820;-62
2023/08/06 05:39:56;;;;;;;3.57;2.27;;;18.50;99.90;;;;;;5036390;28;20485;-61
2023/08/06 05:42:23;;;;;;;2.60;2.10;;;18.50;99.90;;;;;;5036692;28;20450;-60
2023/08/06 05:44:49;;;;;;;4.00;2.73;;;18.50;99.90;;;;;;5036810;28;20920;-60
2023/08/06 05:47:16;;;;;;;4.60;2.90;;;18.50;99.90;;;;;;5035936;28;20944;-60
2023/08/06 05:49:43;;;;;;;2.50;2.17;;;18.50;99.90;;;;;;5036953;28;20478;-61
2023/08/06 05:52:09;;;;;;;2.77;2.53;;;18.50;99.90;;;;;;5036296;28;20443;-61
2023/08/06 05:54:36;;;;;;;2.23;2.13;;;18.50;99.90;;;;;;5036268;28;20449;-61
2023/08/06 05:57:05;;;;;;;3.03;2.13;;;18.60;99.90;;;;;;5036519;28;20486;-61
2023/08/06 05:59:32;;;;;;;3.73;2.30;;;18.60;99.90;;;;;;5036197;28;20447;-61
2023/08/06 06:01:58;;;;;;;2.40;2.23;;;18.70;99.90;;;;;;5035935;28;20496;-61
2023/08/06 06:04:26;;;;;;;2.50;2.30;;;18.80;99.90;;;;;;5036209;28;20431;-61
2023/08/06 06:06:52;;;;;;;2.97;2.43;;;18.80;99.90;;;;;;5036251;28;20443;-61
2023/08/06 06:09:19;;;;;;;2.37;2.17;;;18.90;99.90;;;;;;5036675;28;20447;-62
2023/08/06 06:11:46;;;;;;;1.73;1.63;;;19.00;99.90;;;;;;5036480;28;20462;-61
2023/08/06 06:14:14;;;;;;;2.00;1.80;;;19.10;99.90;;;;;;5036494;28;20457;-62
2023/08/06 06:16:40;;;;;;;1.73;1.63;;;19.20;99.90;;;;;;5036900;28;20450;-62
2023/08/06 06:19:07;;;;;;;1.90;1.53;;;19.20;99.90;;;;;;5036715;28;20478;-62
2023/08/06 06:21:34;;;;;;;1.57;1.43;;;19.40;99.90;;;;;;5036766;28;20478;-62
2023/08/06 06:24:00;;;;;;;1.70;1.60;;;19.40;99.90;;;;;;5036824;28;20439;-62
2023/08/06 06:26:28;;;;;;;1.60;1.50;;;19.50;99.90;;;;;;5037271;28;20442;-62
2023/08/06 06:28:55;;;;;;;1.50;1.40;;;19.60;99.90;;;;;;5037366;28;20470;-61
2023/08/06 06:31:23;;;;;;;1.63;1.53;;;19.60;99.90;;;;;;5037340;28;21083;-61
2023/08/06 06:33:49;;;;;;;1.90;1.33;;;19.60;99.90;;;;;;5037987;28;20442;-62
2023/08/06 06:36:16;;;;;;;1.37;1.27;;;19.70;99.90;;;;;;5038603;28;20473;-61
2023/08/06 06:38:43;;;;;;;2.10;1.77;;;19.70;99.90;;;;;;5038653;28;20478;-62
2023/08/06 06:41:10;;;;;;;1.10;1.00;;;19.70;99.90;;;;;;5036114;28;20466;-61
2023/08/06 06:43:37;;;;;;;1.10;1.00;;;19.80;99.90;;;;;;5036303;28;20443;-61
2023/08/06 06:46:04;;;;;;;1.23;1.13;;;19.80;99.90;;;;;;5036443;28;20447;-62
2023/08/06 06:48:33;;;;;;;1.30;1.20;;;19.80;99.90;;;;;;5035293;28;20439;-62
2023/08/06 06:51:00;;;;;;;1.30;1.20;;;19.70;99.80;;;;;;5035116;28;20473;-62
2023/08/06 06:53:27;;;;;;;1.43;1.17;;;19.70;99.70;;;;;;5035090;28;20438;-62
2023/08/06 06:55:54;;;;;;;1.23;1.20;;;19.70;99.90;;;;;;5034829;28;20929;-62
2023/08/06 06:58:21;;;;;;;7.77;3.27;;;19.70;99.90;;;;;;5034733;28;20485;-62
2023/08/06 07:00:48;;;;;;;2.00;1.00;;;19.60;99.90;;;;;;5034851;28;20466;-62
2023/08/06 07:03:15;;;;;;;1.47;1.30;;;19.60;99.90;;;;;;5034355;28;20482;-62
2023/08/06 07:05:43;;;;;;;0.80;0.80;;;19.50;99.90;;;;;;5034778;28;20461;-62
2023/08/06 07:08:09;;;;;;;1.50;1.13;;;19.50;99.90;;;;;;5034618;28;20925;-62
2023/08/06 07:10:36;;;;;;;1.30;1.20;;;19.40;99.90;;;;;;5034501;28;20471;-62
2023/08/06 07:13:03;;;;;;;2.23;1.30;;;19.40;99.90;;;;;;5034560;28;20449;-61
2023/08/06 07:15:29;;;;;;;1.63;1.40;;;19.40;99.90;;;;;;5034534;28;20447;-61
2023/08/06 07:17:56;;;;;;;1.17;1.17;;;19.40;99.90;;;;;;5034134;28;21023;-61
2023/08/06 07:20:23;;;;;;;1.97;1.63;;;19.40;99.90;;;;;;5034208;28;20987;-63
2023/08/06 07:22:51;;;;;;;2.80;1.80;;;19.40;99.90;;;;;;5034546;28;20447;-62
2023/08/06 07:25:18;;;;;;;2.00;1.30;;;19.40;99.90;;;;;;5034671;28;20443;-62
2023/08/06 07:27:45;;;;;;;1.60;1.50;;;19.40;99.90;;;;;;5033509;28;20526;-62
2023/08/06 07:30:12;;;;;;;2.03;1.50;;;19.50;99.90;;;;;;5035076;28;20489;-61
2023/08/06 07:32:38;;;;;;;2.57;2.00;;;19.60;99.90;;;;;;5034555;28;20498;-61
2023/08/06 07:35:07;;;;;;;2.47;1.90;;;19.70;99.90;;;;;;5034781;28;20450;-61
2023/08/06 07:37:34;;;;;;;3.30;3.10;;;19.70;99.90;;;;;;5034812;28;20852;-61
2023/08/06 07:40:03;;;;;;;2.50;2.30;;;19.80;99.90;;;;;;5034397;28;20470;-61
2023/08/06 07:42:30;;;;;;;2.33;2.10;;;19.90;99.90;;;;;;5034363;28;20454;-61
2023/08/06 07:44:59;;;;;;;2.00;1.90;;;20.00;99.90;;;;;;5034133;28;20473;-61
2023/08/06 07:47:26;;;;;;;2.07;1.97;;;20.10;99.90;;;;;;5034129;28;20450;-61
2023/08/06 07:49:53;;;;;;;2.50;2.30;;;20.30;99.90;;;;;;5033934;28;20497;-62
2023/08/06 07:52:20;;;;;;;2.20;2.00;;;20.50;99.90;;;;;;5034191;28;20453;-61
2023/08/06 07:54:46;;;;;;;1.60;1.50;;;20.80;99.70;;;;;;5033979;28;20485;-62
2023/08/06 07:57:15;;;;;;;1.80;1.70;;;21.00;99.00;;;;;;5033659;28;20827;-62
2023/08/06 07:59:42;;;;;;;2.13;2.03;;;21.20;98.50;;;;;;5033962;28;20482;-61
2023/08/06 08:02:08;;;;;;;1.60;1.50;;;21.30;97.80;;;;;;5033641;28;20952;-61
2023/08/06 08:04:35;;;;;;;1.63;1.53;;;21.50;97.30;;;;;;5033740;28;20474;-62
2023/08/06 08:07:02;;;;;;;2.00;1.90;;;21.90;97.30;;;;;;5033814;28;20469;-61
2023/08/06 08:09:29;;;;;;;2.37;1.70;;;22.30;96.70;;;;;;5033573;28;20450;-61
2023/08/06 08:11:55;;;;;;;1.17;1.10;;;22.50;95.50;;;;;;5033653;28;20820;-61
2023/08/06 08:14:24;;;;;;;1.90;1.70;;;22.70;94.90;;;;;;5033680;28;20451;-61
2023/08/06 08:16:50;;;;;;;2.10;1.30;;;22.80;93.90;;;;;;5033641;28;20449;-61
2023/08/06 08:19:17;;;;;;;2.30;2.10;;;22.80;93.00;;;;;;5033132;28;21007;-61
2023/08/06 08:21:44;;;;;;;2.73;2.50;;;22.80;92.70;;;;;;5033219;28;20972;-61
2023/08/06 08:24:10;;;;;;;1.90;1.80;;;22.90;92.80;;;;;;5033147;28;20937;-62
2023/08/06 08:26:37;;;;;;;1.87;1.77;;;22.90;92.30;;;;;;5033133;28;20960;-62
2023/08/06 08:29:04;;;;;;;1.57;1.40;;;23.00;92.50;;;;;;5033436;28;20450;-62
2023/08/06 08:31:38;;;;;;;2.40;2.00;;;23.00;92.30;;;;;;5033305;28;20470;-62
2023/08/06 08:34:05;;;;;;;1.70;1.60;;;23.00;92.40;;;;;;5033458;28;20470;-62
2023/08/06 08:36:32;;;;;;;1.67;1.57;;;22.90;92.20;;;;;;5033346;28;20458;-62
2023/08/06 08:38:58;;;;;;;2.27;1.90;;;22.90;91.80;;;;;;5036224;28;20482;-62
2023/08/06 08:41:25;;;;;;;2.23;2.13;;;22.70;91.50;;;;;;5038173;28;20498;-61
2023/08/06 08:43:53;;;;;;;2.13;2.00;;;22.70;92.20;;;;;;5037360;28;20453;-60
2023/08/06 08:46:20;;;;;;;2.27;2.07;;;22.70;92.80;;;;;;5037329;28;20442;-60
2023/08/06 08:48:49;;;;;;;2.30;2.10;;;22.70;91.70;;;;;;5036969;28;20940;-60
2023/08/06 08:51:17;;;;;;;2.60;2.40;;;22.70;91.90;;;;;;5037149;28;20470;-60
2023/08/06 08:53:46;;;;;;;2.23;2.13;;;22.50;92.20;;;;;;5037205;28;20442;-60
2023/08/06 08:56:14;;;;;;;2.00;1.90;;;22.40;92.70;;;;;;5036906;28;20838;-60
2023/08/06 08:58:40;;;;;;;1.53;1.43;;;22.20;93.20;;;;;;5037002;28;20482;-60
2023/08/06 09:01:09;;;;;;;2.13;1.92;;;22.10;93.50;;;;;;5036320;28;20416;-60
2023/08/06 09:03:37;;;;;;;2.60;1.77;;;22.10;93.70;;;;;;5036814;28;20212;-60
2023/08/06 09:06:06;;;;;;;1.73;1.63;;;22.20;94.10;;;;;;5037027;28;20446;-60
2023/08/06 09:08:38;;;;;;;0.60;0.60;;;22.20;93.80;;;;;;5037160;28;20438;-60
2023/08/06 09:11:06;;;;;;;2.40;1.10;;;21.90;93.70;;;;;;5036806;28;20485;-58
2023/08/06 09:13:32;;;;;;;1.63;0.93;;;21.50;94.30;;;;;;5037059;28;20439;-57
2023/08/06 09:15:59;;;;;;;1.17;0.60;;;21.00;94.80;;;;;;5036507;28;20449;-57
2023/08/06 09:18:27;;;;;;;0.87;0.53;;;20.40;96.30;;;;;;5036727;28;20996;-56
2023/08/06 09:20:54;;;;;;;0.60;0.43;;;20.00;97.60;;;;;;5036756;28;20462;-56
2023/08/06 09:23:29;;;;;;;0.60;0.60;;;19.50;98.80;;;;;;5036735;28;20457;-57
2023/08/06 09:25:56;;;;;;;0.63;0.53;;;19.20;99.90;;;;;;5036853;28;20422;-58
2023/08/06 09:28:24;;;;;;;0.60;0.60;;;18.80;99.90;;;;;;5036637;28;20442;-56
2023/08/06 09:30:51;;;;;;;1.73;0.90;;;18.60;99.90;;;;;;5036945;28;20549;-56
2023/08/06 09:33:19;;;;;;;1.23;0.80;;;18.40;99.90;;;;;;5036579;28;20470;-56
2023/08/06 09:35:47;;;;;;;0.80;0.80;;;18.30;99.90;;;;;;5036556;28;20452;-56
2023/08/06 09:38:14;;;;;;;2.20;1.40;;;18.30;99.90;;;;;;5036553;28;20492;-56
2023/08/06 09:40:42;;;;;;;1.07;1.03;;;18.20;99.90;;;;;;5036491;28;21015;-58
2023/08/06 09:43:09;;;;;;;1.10;1.00;;;18.20;99.90;;;;;;5036511;28;20831;-57
2023/08/06 09:45:38;;;;;;;1.63;0.80;;;18.20;99.90;;;;;;5036287;28;20447;-57
2023/08/06 09:48:06;;;;;;;1.20;1.10;;;18.10;99.90;;;;;;5036296;28;20550;-57
2023/08/06 09:50:35;;;;;;;0.70;0.70;;;18.00;99.90;;;;;;5035292;28;20458;-57
2023/08/06 09:53:03;;;;;;;2.03;0.80;;;18.00;99.90;;;;;;5036115;28;20945;-57
2023/08/06 09:55:30;;;;;;;0.63;0.63;;;17.90;99.90;;;;;;5036404;28;20453;-57
2023/08/06 09:57:59;;;;;;;1.00;1.00;;;17.70;99.90;;;;;;5036124;28;20450;-58
2023/08/06 10:00:28;;;;;;;2.00;1.20;;;17.70;99.90;;;;;;5035898;28;20470;-57
2023/08/06 10:02:55;;;;;;;1.60;1.33;;;17.50;99.90;;;;;;5035748;28;20472;-58
2023/08/06 10:05:23;;;;;;;1.70;1.60;;;17.40;99.90;;;;;;5035917;28;20554;-58
2023/08/06 10:07:51;;;;;;;2.13;1.47;;;17.30;99.90;;;;;;5035799;28;20450;-58
2023/08/06 10:10:19;;;;;;;2.00;1.80;;;17.20;99.90;;;;;;5035774;28;20462;-58
2023/08/06 10:12:49;;;;;;;1.57;1.47;;;17.20;99.90;;;;;;5035793;28;20446;-59
2023/08/06 10:15:20;;;;;;;1.67;1.37;;;17.20;99.90;;;;;;5036162;28;20439;-59
2023/08/06 10:17:50;;;;;;;1.40;1.30;;;17.10;99.90;;;;;;5035735;28;20427;-59
2023/08/06 10:20:16;;;;;;;1.70;1.60;;;17.10;99.90;;;;;;5035621;28;20498;-59
2023/08/06 10:22:44;;;;;;;1.60;1.50;;;17.10;99.90;;;;;;5035529;28;20452;-59
2023/08/06 10:25:11;;;;;;;1.60;1.13;;;17.00;99.90;;;;;;5035353;28;20858;-59
2023/08/06 10:27:41;;;;;;;1.83;1.30;;;17.10;99.90;;;;;;5035521;28;20442;-59
2023/08/06 10:30:27;;;;;;;1.67;1.57;;;17.00;99.90;;;;;;5035596;28;20498;-59
2023/08/06 10:32:56;;;;;;;1.57;1.30;;;16.90;99.90;;;;;;5035823;28;20512;-59
2023/08/06 10:35:43;;;;;;;1.80;1.40;;;16.90;99.90;;;;;;5035894;28;20446;-58
2023/08/06 10:38:13;;;;;;;1.70;1.43;;;16.70;99.90;;;;;;5035373;28;20430;-58
2023/08/06 10:40:41;;;;;;;4.07;2.00;;;16.70;99.90;;;;;;5035336;28;20521;-58
2023/08/06 10:43:10;;;;;;;3.83;1.80;;;16.70;99.90;;;;;;5035255;28;20454;-58
2023/08/06 10:45:38;;;;;;;1.77;1.67;;;16.90;99.90;;;;;;5035306;28;20454;-57
2023/08/06 10:48:05;;;;;;;4.07;1.87;;;17.00;99.90;;;;;;5034907;28;20450;-56
2023/08/06 10:50:33;;;;;;;4.57;2.60;;;16.90;99.90;;;;;;5035121;28;20541;-56
2023/08/06 10:53:05;;;;;;;3.10;2.13;;;16.90;99.90;;;;;;5034720;28;20941;-56
2023/08/06 10:55:32;;;;;;;3.83;2.10;;;16.90;99.90;;;;;;5034908;28;20799;-56
2023/08/06 10:57:59;;;;;;;4.10;2.20;;;17.00;99.90;;;;;;5034943;28;20442;-57
2023/08/06 11:00:26;;;;;;;3.20;2.47;;;17.00;99.90;;;;;;5034586;28;20494;-57
2023/08/06 11:02:55;;;;;;;6.03;2.60;;;16.90;99.90;;;;;;5034589;28;20465;-57
2023/08/06 11:05:21;;;;;;;3.63;2.70;;;16.90;99.90;;;;;;5034876;28;20454;-58
2023/08/06 11:07:49;;;;;;;2.30;2.07;;;17.00;99.90;;;;;;5034722;28;20442;-58
2023/08/06 11:10:16;;;;;;;3.80;2.40;;;16.90;99.90;;;;;;5034400;28;20980;-58
2023/08/06 11:12:43;;;;;;;4.20;2.50;;;16.90;99.90;;;;;;5033898;28;20504;-58
2023/08/06 11:15:11;;;;;;;4.10;2.83;;;16.80;99.90;;;;;;5034680;28;20261;-58
2023/08/06 11:17:40;;;;;;;4.80;1.93;;;16.80;99.90;;;;;;5034699;28;20529;-59
2023/08/06 11:20:09;;;;;;;2.77;2.00;;;16.80;99.90;;;;;;5034421;28;20977;-58
2023/08/06 11:22:38;;;;;;;2.63;1.90;;;16.80;99.90;;;;;;5034787;28;20446;-58
2023/08/06 11:25:07;;;;;;;5.53;2.67;;;16.90;99.90;;;;;;5034287;28;20978;-58
2023/08/06 11:27:34;;;;;;;3.10;1.90;;;17.00;99.90;;;;;;5034384;28;20442;-58
2023/08/06 11:30:01;;;;;;;3.70;1.77;;;17.20;99.90;;;;;;5034394;28;20494;-59
2023/08/06 11:32:28;;;;;;;3.20;1.93;;;17.30;99.90;;;;;;5034385;28;20446;-57
2023/08/06 11:34:56;;;;;;;4.30;2.23;;;17.40;99.90;;;;;;5034304;28;20537;-57
2023/08/06 11:37:25;;;;;;;3.87;2.10;;;17.50;99.90;;;;;;5034234;28;20451;-58
2023/08/06 11:39:52;;;;;;;4.13;2.27;;;17.50;99.90;;;;;;5034041;28;20568;-58
2023/08/06 11:42:19;;;;;;;2.50;1.73;;;17.60;99.90;;;;;;5034043;28;20442;-58
2023/08/06 11:44:46;;;;;;;4.60;2.27;;;17.80;99.90;;;;;;5033996;28;20482;-58
2023/08/06 11:47:15;;;;;;;4.07;2.40;;;17.90;99.90;;;;;;5033934;28;20826;-58
2023/08/06 11:49:45;;;;;;;3.33;2.10;;;18.10;99.90;;;;;;5033613;28;20438;-58
2023/08/06 11:52:14;;;;;;;5.17;2.03;;;18.30;99.90;;;;;;5033940;28;20477;-59
2023/08/06 11:54:42;;;;;;;3.70;1.83;;;18.40;99.90;;;;;;5033524;28;20449;-60
2023/08/06 11:57:09;;;;;;;1.63;1.53;;;18.60;99.90;;;;;;5033805;28;20523;-58
2023/08/06 11:59:37;;;;;;;6.23;1.70;;;18.70;99.90;;;;;;5033705;28;20478;-59
2023/08/06 12:02:06;;;;;;;2.83;1.50;;;18.70;99.90;;;;;;5034061;28;20458;-59
2023/08/06 12:04:33;;;;;;;1.70;1.30;;;18.70;99.90;;;;;;5033642;28;20500;-59
2023/08/06 12:07:07;;;;;;;5.07;1.30;;;18.70;99.90;;;;;;5033720;28;20960;-59
2023/08/06 12:09:36;;;;;;;1.93;1.20;;;18.70;99.70;;;;;;5033738;28;20496;-59
2023/08/06 12:12:04;;;;;;;1.90;1.70;;;18.80;99.90;;;;;;5033021;28;21015;-60
2023/08/06 12:14:31;;;;;;;2.20;1.30;;;18.80;99.40;;;;;;5033310;28;20500;-60
2023/08/06 12:16:57;;;;;;;4.23;1.60;;;18.90;99.70;;;;;;5033635;28;20477;-60
2023/08/06 12:19:24;;;;;;;2.50;1.43;;;19.00;99.40;;;;;;5033414;28;20486;-60
2023/08/06 12:21:51;;;;;;;6.53;2.10;;;19.10;99.50;;;;;;5033569;28;20442;-60
2023/08/06 12:24:17;;;;;;;3.17;1.77;;;19.00;98.30;;;;;;5033471;28;20471;-60
2023/08/06 12:26:44;;;;;;;1.70;1.60;;;19.00;99.10;;;;;;5033359;28;20451;-60
2023/08/06 12:29:12;;;;;;;3.00;2.07;;;19.00;99.10;;;;;;5033280;28;20442;-60
2023/08/06 12:31:39;;;;;;;2.07;1.40;;;19.00;98.20;;;;;;5033322;28;20470;-60
2023/08/06 12:34:06;;;;;;;2.77;2.50;;;18.80;98.30;;;;;;5033836;28;20446;-60
2023/08/06 12:36:32;;;;;;;2.47;1.57;;;18.60;99.40;;;;;;5033439;28;20446;-60
2023/08/06 12:38:59;;;;;;;3.20;1.60;;;18.70;99.50;;;;;;5033211;28;20446;-60
2023/08/06 12:41:26;;;;;;;1.47;1.37;;;18.70;99.80;;;;;;5033287;28;20475;-60
2023/08/06 12:43:52;;;;;;;3.50;1.87;;;18.70;99.50;;;;;;5033256;28;20442;-60
2023/08/06 12:46:20;;;;;;;5.10;1.60;;;18.80;99.40;;;;;;5033299;28;20447;-60
2023/08/06 12:48:48;;;;;;;3.23;1.97;;;18.70;99.00;;;;;;5033210;28;20450;-60